Terminal Aerodrome Forecast
Issued by NWS Chicago, IL

Home | Current Version | Previous Version | Text Only | Print | Product List | Glossary Off
Versions: 1 2 3 4 5 6 7 8 9 10 11 12 13 14 15 16 17 18 19 20 21 22 23 24 25 26

000
FTUS43 KLOT 240347 AAB
TAFRFD
TAF AMD
KRFD 240347Z 2404/2424 VRB03KT 2SM BCFG SCT003 SCT013 OVC090
      TEMPO 2404/2406 1/2SM FG BKN003 BKN013
     FM240600 VRB03KT 2SM BCFG SCT003 OVC007
     FM241200 03007KT 4SM BR VCSH SCT003 OVC006
     FM241500 03009KT P6SM SCT008 BKN015
     FM241800 03011G18KT P6SM SCT009 BKN020 BKN090=

USA.gov is the U.S. government's official web portal to all federal, state and local government web resources and services.